sensor_id;sensor_type;location;lat;lon;timestamp;P1;durP1;ratioP1;P2;durP2;ratioP2
4885;SDS011;2457;51.788;6.136;2023-04-03T00:02:13;4.40;;;2.10;;
4885;SDS011;2457;51.788;6.136;2023-04-03T00:04:41;6.13;;;1.97;;
4885;SDS011;2457;51.788;6.136;2023-04-03T00:07:08;4.60;;;2.17;;
4885;SDS011;2457;51.788;6.136;2023-04-03T00:09:35;7.20;;;2.20;;
4885;SDS011;2457;51.788;6.136;2023-04-03T00:12:02;7.80;;;2.03;;
4885;SDS011;2457;51.788;6.136;2023-04-03T00:14:30;4.00;;;1.90;;
4885;SDS011;2457;51.788;6.136;2023-04-03T00:16:57;10.20;;;2.60;;
4885;SDS011;2457;51.788;6.136;2023-04-03T00:19:24;6.70;;;1.93;;
4885;SDS011;2457;51.788;6.136;2023-04-03T00:21:51;4.83;;;2.10;;
4885;SDS011;2457;51.788;6.136;2023-04-03T00:24:19;5.40;;;1.70;;
4885;SDS011;2457;51.788;6.136;2023-04-03T00:26:47;5.00;;;1.70;;
4885;SDS011;2457;51.788;6.136;2023-04-03T00:29:14;6.70;;;2.20;;
4885;SDS011;2457;51.788;6.136;2023-04-03T00:31:41;4.60;;;1.60;;
4885;SDS011;2457;51.788;6.136;2023-04-03T00:34:08;3.93;;;1.90;;
4885;SDS011;2457;51.788;6.136;2023-04-03T00:36:36;4.83;;;2.03;;
4885;SDS011;2457;51.788;6.136;2023-04-03T00:39:03;5.20;;;1.80;;
4885;SDS011;2457;51.788;6.136;2023-04-03T00:41:30;4.20;;;1.67;;
4885;SDS011;2457;51.788;6.136;2023-04-03T00:43:58;4.53;;;1.70;;
4885;SDS011;2457;51.788;6.136;2023-04-03T00:46:25;6.70;;;2.10;;
4885;SDS011;2457;51.788;6.136;2023-04-03T00:48:52;6.60;;;1.80;;
4885;SDS011;2457;51.788;6.136;2023-04-03T00:51:20;3.90;;;1.60;;
4885;SDS011;2457;51.788;6.136;2023-04-03T00:56:21;4.60;;;1.57;;
4885;SDS011;2457;51.788;6.136;2023-04-03T00:58:51;4.80;;;1.50;;
4885;SDS011;2457;51.788;6.136;2023-04-03T01:01:20;5.50;;;1.63;;
4885;SDS011;2457;51.788;6.136;2023-04-03T01:03:47;3.60;;;1.47;;
4885;SDS011;2457;51.788;6.136;2023-04-03T01:06:15;7.43;;;1.97;;
4885;SDS011;2457;51.788;6.136;2023-04-03T01:08:43;4.60;;;1.43;;
4885;SDS011;2457;51.788;6.136;2023-04-03T01:11:10;4.47;;;1.63;;
4885;SDS011;2457;51.788;6.136;2023-04-03T01:13:38;5.33;;;1.63;;
4885;SDS011;2457;51.788;6.136;2023-04-03T01:16:07;7.30;;;2.10;;
4885;SDS011;2457;51.788;6.136;2023-04-03T01:18:36;6.97;;;2.00;;
4885;SDS011;2457;51.788;6.136;2023-04-03T01:23:59;9.10;;;2.20;;
4885;SDS011;2457;51.788;6.136;2023-04-03T01:26:26;4.77;;;1.83;;
4885;SDS011;2457;51.788;6.136;2023-04-03T01:28:54;5.30;;;2.00;;
4885;SDS011;2457;51.788;6.136;2023-04-03T01:31:23;4.50;;;1.67;;
4885;SDS011;2457;51.788;6.136;2023-04-03T01:33:51;5.03;;;2.00;;
4885;SDS011;2457;51.788;6.136;2023-04-03T01:36:21;12.13;;;2.77;;
4885;SDS011;2457;51.788;6.136;2023-04-03T01:38:47;5.10;;;2.20;;
4885;SDS011;2457;51.788;6.136;2023-04-03T01:41:16;5.50;;;1.47;;
4885;SDS011;2457;51.788;6.136;2023-04-03T01:43:43;6.50;;;2.00;;
4885;SDS011;2457;51.788;6.136;2023-04-03T01:46:11;5.47;;;1.87;;
4885;SDS011;2457;51.788;6.136;2023-04-03T01:48:38;8.70;;;2.50;;
4885;SDS011;2457;51.788;6.136;2023-04-03T01:51:06;5.60;;;1.90;;
4885;SDS011;2457;51.788;6.136;2023-04-03T01:53:33;10.10;;;2.13;;
4885;SDS011;2457;51.788;6.136;2023-04-03T01:56:00;4.37;;;1.60;;
4885;SDS011;2457;51.788;6.136;2023-04-03T01:58:28;10.47;;;2.80;;
4885;SDS011;2457;51.788;6.136;2023-04-03T02:00:55;7.67;;;2.17;;
4885;SDS011;2457;51.788;6.136;2023-04-03T02:03:22;8.97;;;2.10;;
4885;SDS011;2457;51.788;6.136;2023-04-03T02:05:50;5.53;;;1.63;;
4885;SDS011;2457;51.788;6.136;2023-04-03T02:08:17;10.93;;;2.93;;
4885;SDS011;2457;51.788;6.136;2023-04-03T02:10:46;5.87;;;2.23;;
4885;SDS011;2457;51.788;6.136;2023-04-03T02:13:14;6.10;;;2.03;;
4885;SDS011;2457;51.788;6.136;2023-04-03T02:15:41;6.83;;;1.80;;
4885;SDS011;2457;51.788;6.136;2023-04-03T02:18:08;4.43;;;1.60;;
4885;SDS011;2457;51.788;6.136;2023-04-03T02:20:36;8.00;;;1.97;;
4885;SDS011;2457;51.788;6.136;2023-04-03T02:23:03;7.03;;;1.70;;
4885;SDS011;2457;51.788;6.136;2023-04-03T02:25:32;10.60;;;2.20;;
4885;SDS011;2457;51.788;6.136;2023-04-03T02:27:59;7.43;;;2.03;;
4885;SDS011;2457;51.788;6.136;2023-04-03T02:30:26;4.50;;;1.50;;
4885;SDS011;2457;51.788;6.136;2023-04-03T02:32:54;6.60;;;1.50;;
4885;SDS011;2457;51.788;6.136;2023-04-03T02:35:22;3.40;;;1.40;;
4885;SDS011;2457;51.788;6.136;2023-04-03T02:37:49;5.60;;;1.53;;
4885;SDS011;2457;51.788;6.136;2023-04-03T02:40:17;4.90;;;1.67;;
4885;SDS011;2457;51.788;6.136;2023-04-03T02:42:44;4.17;;;1.70;;
4885;SDS011;2457;51.788;6.136;2023-04-03T02:45:11;6.10;;;1.73;;
4885;SDS011;2457;51.788;6.136;2023-04-03T02:47:38;4.43;;;1.60;;
4885;SDS011;2457;51.788;6.136;2023-04-03T02:50:06;6.47;;;2.00;;
4885;SDS011;2457;51.788;6.136;2023-04-03T02:52:33;5.43;;;1.77;;
4885;SDS011;2457;51.788;6.136;2023-04-03T02:55:01;4.40;;;1.50;;
4885;SDS011;2457;51.788;6.136;2023-04-03T02:57:28;6.53;;;1.70;;
4885;SDS011;2457;51.788;6.136;2023-04-03T02:59:56;7.10;;;2.00;;
4885;SDS011;2457;51.788;6.136;2023-04-03T03:02:23;5.67;;;1.80;;
4885;SDS011;2457;51.788;6.136;2023-04-03T03:04:50;5.37;;;1.83;;
4885;SDS011;2457;51.788;6.136;2023-04-03T03:07:18;6.10;;;1.97;;
4885;SDS011;2457;51.788;6.136;2023-04-03T03:09:45;6.80;;;1.80;;
4885;SDS011;2457;51.788;6.136;2023-04-03T03:12:12;5.27;;;1.63;;
4885;SDS011;2457;51.788;6.136;2023-04-03T03:14:39;4.93;;;1.63;;
4885;SDS011;2457;51.788;6.136;2023-04-03T03:17:08;4.50;;;1.67;;
4885;SDS011;2457;51.788;6.136;2023-04-03T03:19:36;5.40;;;1.80;;
4885;SDS011;2457;51.788;6.136;2023-04-03T03:22:03;6.03;;;1.70;;
4885;SDS011;2457;51.788;6.136;2023-04-03T03:24:30;7.13;;;1.87;;
4885;SDS011;2457;51.788;6.136;2023-04-03T03:26:57;6.93;;;1.53;;
4885;SDS011;2457;51.788;6.136;2023-04-03T03:29:25;4.57;;;1.43;;
4885;SDS011;2457;51.788;6.136;2023-04-03T03:31:52;6.70;;;1.60;;
4885;SDS011;2457;51.788;6.136;2023-04-03T03:34:19;7.27;;;2.00;;
4885;SDS011;2457;51.788;6.136;2023-04-03T03:36:47;5.23;;;1.43;;
4885;SDS011;2457;51.788;6.136;2023-04-03T03:39:14;5.00;;;1.83;;
4885;SDS011;2457;51.788;6.136;2023-04-03T03:41:41;4.70;;;1.53;;
4885;SDS011;2457;51.788;6.136;2023-04-03T03:44:09;4.67;;;1.50;;
4885;SDS011;2457;51.788;6.136;2023-04-03T03:46:36;5.43;;;1.53;;
4885;SDS011;2457;51.788;6.136;2023-04-03T03:49:03;4.97;;;1.33;;
4885;SDS011;2457;51.788;6.136;2023-04-03T03:51:31;3.60;;;1.43;;
4885;SDS011;2457;51.788;6.136;2023-04-03T03:53:58;4.50;;;1.63;;
4885;SDS011;2457;51.788;6.136;2023-04-03T03:56:25;10.87;;;2.00;;
4885;SDS011;2457;51.788;6.136;2023-04-03T03:58:52;4.57;;;1.40;;
4885;SDS011;2457;51.788;6.136;2023-04-03T04:01:20;4.30;;;1.73;;
4885;SDS011;2457;51.788;6.136;2023-04-03T04:03:48;7.53;;;1.90;;
4885;SDS011;2457;51.788;6.136;2023-04-03T04:06:15;9.13;;;1.83;;
4885;SDS011;2457;51.788;6.136;2023-04-03T04:08:43;5.00;;;1.50;;
4885;SDS011;2457;51.788;6.136;2023-04-03T04:11:10;4.60;;;1.53;;
4885;SDS011;2457;51.788;6.136;2023-04-03T04:13:37;4.37;;;1.57;;
4885;SDS011;2457;51.788;6.136;2023-04-03T04:16:05;4.20;;;1.30;;
4885;SDS011;2457;51.788;6.136;2023-04-03T04:18:33;4.93;;;1.50;;
4885;SDS011;2457;51.788;6.136;2023-04-03T04:21:00;4.70;;;1.30;;
4885;SDS011;2457;51.788;6.136;2023-04-03T04:23:27;5.50;;;1.70;;
4885;SDS011;2457;51.788;6.136;2023-04-03T04:25:55;4.27;;;1.27;;
4885;SDS011;2457;51.788;6.136;2023-04-03T04:28:22;3.97;;;1.60;;
4885;SDS011;2457;51.788;6.136;2023-04-03T04:30:49;4.53;;;1.43;;
4885;SDS011;2457;51.788;6.136;2023-04-03T04:33:16;5.57;;;1.63;;
4885;SDS011;2457;51.788;6.136;2023-04-03T04:35:44;5.13;;;1.30;;
4885;SDS011;2457;51.788;6.136;2023-04-03T04:38:11;3.20;;;1.30;;
4885;SDS011;2457;51.788;6.136;2023-04-03T04:40:38;7.10;;;1.70;;
4885;SDS011;2457;51.788;6.136;2023-04-03T04:43:06;4.43;;;1.90;;
4885;SDS011;2457;51.788;6.136;2023-04-03T04:45:33;4.07;;;1.30;;
4885;SDS011;2457;51.788;6.136;2023-04-03T04:48:01;4.73;;;1.50;;
4885;SDS011;2457;51.788;6.136;2023-04-03T04:50:28;5.53;;;2.03;;
4885;SDS011;2457;51.788;6.136;2023-04-03T04:52:55;5.37;;;1.53;;
4885;SDS011;2457;51.788;6.136;2023-04-03T04:55:23;4.83;;;1.60;;
4885;SDS011;2457;51.788;6.136;2023-04-03T04:57:50;6.50;;;1.73;;
4885;SDS011;2457;51.788;6.136;2023-04-03T05:00:18;6.17;;;1.77;;
4885;SDS011;2457;51.788;6.136;2023-04-03T05:02:45;3.33;;;1.50;;
4885;SDS011;2457;51.788;6.136;2023-04-03T05:05:12;4.57;;;1.40;;
4885;SDS011;2457;51.788;6.136;2023-04-03T05:07:40;7.73;;;1.80;;
4885;SDS011;2457;51.788;6.136;2023-04-03T05:10:08;8.10;;;1.30;;
4885;SDS011;2457;51.788;6.136;2023-04-03T05:12:36;6.03;;;1.87;;
4885;SDS011;2457;51.788;6.136;2023-04-03T05:15:03;4.03;;;1.50;;
4885;SDS011;2457;51.788;6.136;2023-04-03T05:17:31;3.93;;;1.43;;
4885;SDS011;2457;51.788;6.136;2023-04-03T05:19:58;5.63;;;1.37;;
4885;SDS011;2457;51.788;6.136;2023-04-03T05:22:25;5.13;;;1.50;;
4885;SDS011;2457;51.788;6.136;2023-04-03T05:24:53;4.80;;;1.60;;
4885;SDS011;2457;51.788;6.136;2023-04-03T05:27:20;4.63;;;1.40;;
4885;SDS011;2457;51.788;6.136;2023-04-03T05:29:49;4.50;;;1.80;;
4885;SDS011;2457;51.788;6.136;2023-04-03T05:32:17;4.50;;;1.73;;
4885;SDS011;2457;51.788;6.136;2023-04-03T05:34:44;7.33;;;1.97;;
4885;SDS011;2457;51.788;6.136;2023-04-03T05:37:11;5.97;;;1.80;;
4885;SDS011;2457;51.788;6.136;2023-04-03T05:39:39;7.53;;;1.70;;
4885;SDS011;2457;51.788;6.136;2023-04-03T05:42:07;3.30;;;1.20;;
4885;SDS011;2457;51.788;6.136;2023-04-03T05:44:34;7.30;;;1.87;;
4885;SDS011;2457;51.788;6.136;2023-04-03T05:47:01;4.60;;;1.80;;
4885;SDS011;2457;51.788;6.136;2023-04-03T05:49:29;4.70;;;1.60;;
4885;SDS011;2457;51.788;6.136;2023-04-03T05:51:56;6.57;;;1.80;;
4885;SDS011;2457;51.788;6.136;2023-04-03T05:54:24;3.73;;;1.30;;
4885;SDS011;2457;51.788;6.136;2023-04-03T05:56:52;5.07;;;1.20;;
4885;SDS011;2457;51.788;6.136;2023-04-03T05:59:19;5.20;;;1.80;;
4885;SDS011;2457;51.788;6.136;2023-04-03T06:01:46;5.43;;;1.60;;
4885;SDS011;2457;51.788;6.136;2023-04-03T06:04:14;6.50;;;1.57;;
4885;SDS011;2457;51.788;6.136;2023-04-03T06:06:50;7.70;;;2.13;;
4885;SDS011;2457;51.788;6.136;2023-04-03T06:09:15;4.10;;;1.50;;
4885;SDS011;2457;51.788;6.136;2023-04-03T06:11:43;3.87;;;1.50;;
4885;SDS011;2457;51.788;6.136;2023-04-03T06:14:10;7.50;;;2.00;;
4885;SDS011;2457;51.788;6.136;2023-04-03T06:16:38;7.80;;;2.30;;
4885;SDS011;2457;51.788;6.136;2023-04-03T06:19:11;8.27;;;2.30;;
4885;SDS011;2457;51.788;6.136;2023-04-03T06:21:35;8.03;;;1.90;;
4885;SDS011;2457;51.788;6.136;2023-04-03T06:24:03;7.47;;;2.07;;
4885;SDS011;2457;51.788;6.136;2023-04-03T06:26:31;7.33;;;2.00;;
4885;SDS011;2457;51.788;6.136;2023-04-03T06:28:59;6.13;;;2.17;;
4885;SDS011;2457;51.788;6.136;2023-04-03T06:31:27;8.13;;;2.43;;
4885;SDS011;2457;51.788;6.136;2023-04-03T06:33:55;6.57;;;2.30;;
4885;SDS011;2457;51.788;6.136;2023-04-03T06:36:22;6.63;;;2.30;;
4885;SDS011;2457;51.788;6.136;2023-04-03T06:38:50;5.00;;;2.00;;
4885;SDS011;2457;51.788;6.136;2023-04-03T06:41:17;6.20;;;2.20;;
4885;SDS011;2457;51.788;6.136;2023-04-03T06:43:44;7.43;;;1.70;;
4885;SDS011;2457;51.788;6.136;2023-04-03T06:46:16;4.70;;;1.57;;
4885;SDS011;2457;51.788;6.136;2023-04-03T06:48:41;4.37;;;1.67;;
4885;SDS011;2457;51.788;6.136;2023-04-03T06:51:30;7.10;;;2.13;;
4885;SDS011;2457;51.788;6.136;2023-04-03T06:53:37;6.10;;;2.00;;
4885;SDS011;2457;51.788;6.136;2023-04-03T06:56:05;7.40;;;1.70;;
4885;SDS011;2457;51.788;6.136;2023-04-03T06:58:32;4.93;;;1.20;;
4885;SDS011;2457;51.788;6.136;2023-04-03T07:01:00;4.20;;;1.37;;
4885;SDS011;2457;51.788;6.136;2023-04-03T07:03:27;6.03;;;1.70;;
4885;SDS011;2457;51.788;6.136;2023-04-03T07:05:54;6.00;;;1.83;;
4885;SDS011;2457;51.788;6.136;2023-04-03T07:08:22;4.50;;;1.43;;
4885;SDS011;2457;51.788;6.136;2023-04-03T07:10:49;4.83;;;1.50;;
4885;SDS011;2457;51.788;6.136;2023-04-03T07:13:17;4.50;;;1.30;;
4885;SDS011;2457;51.788;6.136;2023-04-03T07:15:44;5.47;;;1.60;;
4885;SDS011;2457;51.788;6.136;2023-04-03T07:18:12;5.20;;;1.53;;
4885;SDS011;2457;51.788;6.136;2023-04-03T07:20:39;5.40;;;1.30;;
4885;SDS011;2457;51.788;6.136;2023-04-03T07:23:06;5.80;;;1.63;;
4885;SDS011;2457;51.788;6.136;2023-04-03T07:25:34;4.00;;;1.43;;
4885;SDS011;2457;51.788;6.136;2023-04-03T07:28:01;4.80;;;1.70;;
4885;SDS011;2457;51.788;6.136;2023-04-03T07:30:28;6.40;;;1.47;;
4885;SDS011;2457;51.788;6.136;2023-04-03T07:32:55;7.00;;;1.57;;
4885;SDS011;2457;51.788;6.136;2023-04-03T07:35:23;4.30;;;1.50;;
4885;SDS011;2457;51.788;6.136;2023-04-03T07:37:50;6.00;;;1.43;;
4885;SDS011;2457;51.788;6.136;2023-04-03T07:40:17;5.73;;;1.90;;
4885;SDS011;2457;51.788;6.136;2023-04-03T07:42:45;3.93;;;1.53;;
4885;SDS011;2457;51.788;6.136;2023-04-03T07:45:13;3.50;;;1.40;;
4885;SDS011;2457;51.788;6.136;2023-04-03T07:47:40;4.10;;;1.40;;
4885;SDS011;2457;51.788;6.136;2023-04-03T07:50:08;5.20;;;1.90;;
4885;SDS011;2457;51.788;6.136;2023-04-03T07:52:35;3.80;;;1.30;;
4885;SDS011;2457;51.788;6.136;2023-04-03T07:55:02;4.20;;;1.63;;
4885;SDS011;2457;51.788;6.136;2023-04-03T07:57:29;4.90;;;1.60;;
4885;SDS011;2457;51.788;6.136;2023-04-03T07:59:57;4.13;;;1.30;;
4885;SDS011;2457;51.788;6.136;2023-04-03T08:02:24;5.90;;;1.47;;
4885;SDS011;2457;51.788;6.136;2023-04-03T08:04:51;5.03;;;1.50;;
4885;SDS011;2457;51.788;6.136;2023-04-03T08:07:18;4.70;;;1.30;;
4885;SDS011;2457;51.788;6.136;2023-04-03T08:09:47;4.07;;;1.27;;
4885;SDS011;2457;51.788;6.136;2023-04-03T08:12:14;5.30;;;1.40;;
4885;SDS011;2457;51.788;6.136;2023-04-03T08:14:41;6.13;;;1.90;;
4885;SDS011;2457;51.788;6.136;2023-04-03T08:17:09;4.60;;;1.30;;
4885;SDS011;2457;51.788;6.136;2023-04-03T08:19:38;3.73;;;1.47;;
4885;SDS011;2457;51.788;6.136;2023-04-03T08:22:06;6.97;;;2.30;;
4885;SDS011;2457;51.788;6.136;2023-04-03T08:24:33;7.43;;;1.70;;
4885;SDS011;2457;51.788;6.136;2023-04-03T08:27:01;3.87;;;1.30;;
4885;SDS011;2457;51.788;6.136;2023-04-03T08:29:28;3.93;;;1.20;;
4885;SDS011;2457;51.788;6.136;2023-04-03T08:31:55;5.27;;;1.57;;
4885;SDS011;2457;51.788;6.136;2023-04-03T08:34:23;3.10;;;1.07;;
4885;SDS011;2457;51.788;6.136;2023-04-03T08:36:50;6.43;;;1.67;;
4885;SDS011;2457;51.788;6.136;2023-04-03T08:39:17;5.03;;;1.17;;
4885;SDS011;2457;51.788;6.136;2023-04-03T08:41:45;7.20;;;1.33;;
4885;SDS011;2457;51.788;6.136;2023-04-03T08:44:29;5.23;;;1.60;;
4885;SDS011;2457;51.788;6.136;2023-04-03T08:49:27;3.17;;;0.97;;
4885;SDS011;2457;51.788;6.136;2023-04-03T08:51:55;6.23;;;1.30;;
4885;SDS011;2457;51.788;6.136;2023-04-03T08:54:33;3.00;;;1.17;;
4885;SDS011;2457;51.788;6.136;2023-04-03T08:57:01;3.57;;;1.10;;
4885;SDS011;2457;51.788;6.136;2023-04-03T08:59:31;3.50;;;1.20;;
4885;SDS011;2457;51.788;6.136;2023-04-03T09:01:59;5.10;;;1.50;;
4885;SDS011;2457;51.788;6.136;2023-04-03T09:04:28;3.83;;;1.10;;
4885;SDS011;2457;51.788;6.136;2023-04-03T09:06:59;4.13;;;1.53;;
4885;SDS011;2457;51.788;6.136;2023-04-03T09:17:49;3.50;;;1.30;;
4885;SDS011;2457;51.788;6.136;2023-04-03T09:22:43;5.13;;;1.30;;
4885;SDS011;2457;51.788;6.136;2023-04-03T09:25:17;4.93;;;1.10;;
4885;SDS011;2457;51.788;6.136;2023-04-03T09:27:45;3.57;;;0.90;;
4885;SDS011;2457;51.788;6.136;2023-04-03T09:30:13;2.90;;;0.80;;
4885;SDS011;2457;51.788;6.136;2023-04-03T09:32:43;3.63;;;1.13;;
4885;SDS011;2457;51.788;6.136;2023-04-03T09:37:43;2.73;;;1.00;;
4885;SDS011;2457;51.788;6.136;2023-04-03T09:42:55;3.63;;;1.10;;
4885;SDS011;2457;51.788;6.136;2023-04-03T09:45:30;2.80;;;0.97;;
4885;SDS011;2457;51.788;6.136;2023-04-03T09:48:05;2.87;;;0.90;;
4885;SDS011;2457;51.788;6.136;2023-04-03T09:50:33;3.77;;;1.00;;
4885;SDS011;2457;51.788;6.136;2023-04-03T09:53:05;3.83;;;1.10;;
4885;SDS011;2457;51.788;6.136;2023-04-03T09:55:41;4.37;;;1.17;;
4885;SDS011;2457;51.788;6.136;2023-04-03T09:58:04;4.83;;;1.10;;
4885;SDS011;2457;51.788;6.136;2023-04-03T10:00:34;4.77;;;1.20;;
4885;SDS011;2457;51.788;6.136;2023-04-03T10:03:02;3.30;;;0.90;;
4885;SDS011;2457;51.788;6.136;2023-04-03T10:05:34;3.20;;;1.00;;
4885;SDS011;2457;51.788;6.136;2023-04-03T10:10:37;3.10;;;1.00;;
4885;SDS011;2457;51.788;6.136;2023-04-03T10:13:10;2.70;;;1.00;;
4885;SDS011;2457;51.788;6.136;2023-04-03T10:15:39;2.70;;;0.80;;
4885;SDS011;2457;51.788;6.136;2023-04-03T10:18:07;2.90;;;0.83;;
4885;SDS011;2457;51.788;6.136;2023-04-03T10:20:43;3.63;;;1.00;;
4885;SDS011;2457;51.788;6.136;2023-04-03T10:23:18;3.60;;;1.07;;
4885;SDS011;2457;51.788;6.136;2023-04-03T10:25:54;3.80;;;0.90;;
4885;SDS011;2457;51.788;6.136;2023-04-03T10:28:27;4.93;;;0.97;;
4885;SDS011;2457;51.788;6.136;2023-04-03T10:31:02;3.03;;;0.90;;
4885;SDS011;2457;51.788;6.136;2023-04-03T10:33:31;3.43;;;0.77;;
4885;SDS011;2457;51.788;6.136;2023-04-03T10:38:45;3.17;;;0.93;;
4885;SDS011;2457;51.788;6.136;2023-04-03T10:46:36;3.57;;;1.03;;
4885;SDS011;2457;51.788;6.136;2023-04-03T10:49:22;3.10;;;1.20;;
4885;SDS011;2457;51.788;6.136;2023-04-03T10:51:48;3.87;;;1.30;;
4885;SDS011;2457;51.788;6.136;2023-04-03T10:54:20;3.10;;;0.90;;
4885;SDS011;2457;51.788;6.136;2023-04-03T10:56:48;3.80;;;1.20;;
4885;SDS011;2457;51.788;6.136;2023-04-03T10:59:26;2.90;;;0.83;;
4885;SDS011;2457;51.788;6.136;2023-04-03T11:01:55;4.70;;;1.00;;
4885;SDS011;2457;51.788;6.136;2023-04-03T11:04:24;2.80;;;0.90;;
4885;SDS011;2457;51.788;6.136;2023-04-03T11:07:03;3.43;;;1.17;;
4885;SDS011;2457;51.788;6.136;2023-04-03T11:09:28;8.03;;;1.30;;
4885;SDS011;2457;51.788;6.136;2023-04-03T11:11:57;5.27;;;1.00;;
4885;SDS011;2457;51.788;6.136;2023-04-03T11:14:26;2.87;;;0.93;;
4885;SDS011;2457;51.788;6.136;2023-04-03T11:16:57;4.43;;;1.20;;
4885;SDS011;2457;51.788;6.136;2023-04-03T11:19:27;3.93;;;1.20;;
4885;SDS011;2457;51.788;6.136;2023-04-03T11:21:56;3.10;;;0.90;;
4885;SDS011;2457;51.788;6.136;2023-04-03T11:24:25;4.13;;;1.20;;
4885;SDS011;2457;51.788;6.136;2023-04-03T11:26:53;3.10;;;0.90;;
4885;SDS011;2457;51.788;6.136;2023-04-03T11:29:25;10.27;;;1.23;;
4885;SDS011;2457;51.788;6.136;2023-04-03T11:32:02;4.33;;;1.43;;
4885;SDS011;2457;51.788;6.136;2023-04-03T11:34:29;4.60;;;1.10;;
4885;SDS011;2457;51.788;6.136;2023-04-03T11:36:55;4.10;;;1.20;;
4885;SDS011;2457;51.788;6.136;2023-04-03T11:39:25;3.10;;;1.00;;
4885;SDS011;2457;51.788;6.136;2023-04-03T11:41:52;2.93;;;1.10;;
4885;SDS011;2457;51.788;6.136;2023-04-03T11:44:36;3.90;;;1.30;;
4885;SDS011;2457;51.788;6.136;2023-04-03T11:47:05;3.43;;;1.27;;
4885;SDS011;2457;51.788;6.136;2023-04-03T11:57:50;4.73;;;1.30;;
4885;SDS011;2457;51.788;6.136;2023-04-03T12:02:57;3.53;;;1.10;;
4885;SDS011;2457;51.788;6.136;2023-04-03T12:05:28;3.20;;;1.10;;
4885;SDS011;2457;51.788;6.136;2023-04-03T12:10:42;4.10;;;1.30;;
4885;SDS011;2457;51.788;6.136;2023-04-03T12:13:16;4.20;;;1.20;;
4885;SDS011;2457;51.788;6.136;2023-04-03T12:20:56;4.87;;;1.30;;
4885;SDS011;2457;51.788;6.136;2023-04-03T12:25:52;4.80;;;1.50;;
4885;SDS011;2457;51.788;6.136;2023-04-03T12:28:21;3.80;;;1.27;;
4885;SDS011;2457;51.788;6.136;2023-04-03T12:30:48;8.03;;;1.30;;
4885;SDS011;2457;51.788;6.136;2023-04-03T12:33:31;3.20;;;1.17;;
4885;SDS011;2457;51.788;6.136;2023-04-03T12:38:42;7.77;;;1.30;;
4885;SDS011;2457;51.788;6.136;2023-04-03T12:43:56;4.93;;;1.63;;
4885;SDS011;2457;51.788;6.136;2023-04-03T12:46:17;4.10;;;1.03;;
4885;SDS011;2457;51.788;6.136;2023-04-03T12:51:14;2.90;;;1.10;;
4885;SDS011;2457;51.788;6.136;2023-04-03T12:53:42;3.27;;;1.20;;
4885;SDS011;2457;51.788;6.136;2023-04-03T12:58:51;4.50;;;1.30;;
4885;SDS011;2457;51.788;6.136;2023-04-03T13:01:21;5.63;;;1.10;;
4885;SDS011;2457;51.788;6.136;2023-04-03T13:03:48;2.80;;;1.10;;
4885;SDS011;2457;51.788;6.136;2023-04-03T13:06:21;3.70;;;1.37;;
4885;SDS011;2457;51.788;6.136;2023-04-03T13:08:51;2.80;;;1.03;;
4885;SDS011;2457;51.788;6.136;2023-04-03T13:11:18;3.90;;;1.30;;
4885;SDS011;2457;51.788;6.136;2023-04-03T13:14:00;5.27;;;1.23;;
4885;SDS011;2457;51.788;6.136;2023-04-03T13:16:29;4.20;;;1.10;;
4885;SDS011;2457;51.788;6.136;2023-04-03T13:18:57;4.27;;;1.10;;
4885;SDS011;2457;51.788;6.136;2023-04-03T13:21:26;4.17;;;1.43;;
4885;SDS011;2457;51.788;6.136;2023-04-03T13:23:54;4.40;;;1.13;;
4885;SDS011;2457;51.788;6.136;2023-04-03T13:26:23;4.33;;;1.40;;
4885;SDS011;2457;51.788;6.136;2023-04-03T13:28:52;5.67;;;1.60;;
4885;SDS011;2457;51.788;6.136;2023-04-03T13:31:22;3.43;;;1.10;;
4885;SDS011;2457;51.788;6.136;2023-04-03T13:36:30;4.63;;;1.20;;
4885;SDS011;2457;51.788;6.136;2023-04-03T13:41:39;4.50;;;1.17;;
4885;SDS011;2457;51.788;6.136;2023-04-03T13:46:55;6.03;;;1.70;;
4885;SDS011;2457;51.788;6.136;2023-04-03T13:49:45;3.83;;;1.10;;
4885;SDS011;2457;51.788;6.136;2023-04-03T13:51:51;3.67;;;1.10;;
4885;SDS011;2457;51.788;6.136;2023-04-03T13:54:20;3.47;;;1.30;;
4885;SDS011;2457;51.788;6.136;2023-04-03T13:56:52;3.20;;;1.20;;
4885;SDS011;2457;51.788;6.136;2023-04-03T14:01:47;3.97;;;1.30;;
4885;SDS011;2457;51.788;6.136;2023-04-03T14:04:19;3.53;;;1.20;;
4885;SDS011;2457;51.788;6.136;2023-04-03T14:06:46;3.83;;;1.20;;
4885;SDS011;2457;51.788;6.136;2023-04-03T14:09:14;3.07;;;0.90;;
4885;SDS011;2457;51.788;6.136;2023-04-03T14:11:43;4.50;;;1.57;;
4885;SDS011;2457;51.788;6.136;2023-04-03T14:14:13;5.87;;;1.13;;
4885;SDS011;2457;51.788;6.136;2023-04-03T14:16:41;4.03;;;1.43;;
4885;SDS011;2457;51.788;6.136;2023-04-03T14:19:14;3.70;;;1.30;;
4885;SDS011;2457;51.788;6.136;2023-04-03T14:21:37;3.70;;;1.10;;
4885;SDS011;2457;51.788;6.136;2023-04-03T14:24:04;5.73;;;1.50;;
4885;SDS011;2457;51.788;6.136;2023-04-03T14:26:32;4.07;;;1.00;;
4885;SDS011;2457;51.788;6.136;2023-04-03T14:28:59;3.63;;;1.23;;
4885;SDS011;2457;51.788;6.136;2023-04-03T14:31:26;6.83;;;1.27;;
4885;SDS011;2457;51.788;6.136;2023-04-03T14:33:54;3.20;;;0.90;;
4885;SDS011;2457;51.788;6.136;2023-04-03T14:36:23;7.30;;;1.20;;
4885;SDS011;2457;51.788;6.136;2023-04-03T14:38:51;7.07;;;1.37;;
4885;SDS011;2457;51.788;6.136;2023-04-03T14:41:21;3.43;;;1.37;;
4885;SDS011;2457;51.788;6.136;2023-04-03T14:43:48;4.57;;;1.20;;
4885;SDS011;2457;51.788;6.136;2023-04-03T14:48:48;3.60;;;1.23;;
4885;SDS011;2457;51.788;6.136;2023-04-03T14:51:16;3.90;;;1.20;;
4885;SDS011;2457;51.788;6.136;2023-04-03T14:53:43;5.43;;;1.43;;
4885;SDS011;2457;51.788;6.136;2023-04-03T14:56:12;3.93;;;1.40;;
4885;SDS011;2457;51.788;6.136;2023-04-03T14:58:39;6.43;;;1.40;;
4885;SDS011;2457;51.788;6.136;2023-04-03T15:01:08;4.77;;;1.50;;
4885;SDS011;2457;51.788;6.136;2023-04-03T15:03:36;3.27;;;1.20;;
4885;SDS011;2457;51.788;6.136;2023-04-03T15:06:03;3.67;;;1.10;;
4885;SDS011;2457;51.788;6.136;2023-04-03T15:08:31;4.63;;;1.40;;
4885;SDS011;2457;51.788;6.136;2023-04-03T15:10:58;4.30;;;1.30;;
4885;SDS011;2457;51.788;6.136;2023-04-03T15:13:27;5.00;;;1.60;;
4885;SDS011;2457;51.788;6.136;2023-04-03T15:15:54;5.10;;;1.80;;
4885;SDS011;2457;51.788;6.136;2023-04-03T15:18:23;6.23;;;1.37;;
4885;SDS011;2457;51.788;6.136;2023-04-03T15:20:52;2.80;;;1.00;;
4885;SDS011;2457;51.788;6.136;2023-04-03T15:23:20;3.00;;;1.20;;
4885;SDS011;2457;51.788;6.136;2023-04-03T15:25:49;3.90;;;1.43;;
4885;SDS011;2457;51.788;6.136;2023-04-03T15:28:22;5.40;;;1.53;;
4885;SDS011;2457;51.788;6.136;2023-04-03T15:30:48;3.37;;;1.23;;
4885;SDS011;2457;51.788;6.136;2023-04-03T15:33:15;4.53;;;1.50;;
4885;SDS011;2457;51.788;6.136;2023-04-03T15:35:43;8.40;;;1.33;;
4885;SDS011;2457;51.788;6.136;2023-04-03T15:38:10;3.37;;;1.03;;
4885;SDS011;2457;51.788;6.136;2023-04-03T15:40:37;3.97;;;1.23;;
4885;SDS011;2457;51.788;6.136;2023-04-03T15:43:05;4.10;;;1.30;;
4885;SDS011;2457;51.788;6.136;2023-04-03T15:45:33;5.73;;;1.67;;
4885;SDS011;2457;51.788;6.136;2023-04-03T15:48:02;5.13;;;1.27;;
4885;SDS011;2457;51.788;6.136;2023-04-03T15:50:30;3.53;;;1.40;;
4885;SDS011;2457;51.788;6.136;2023-04-03T15:52:58;5.93;;;1.40;;
4885;SDS011;2457;51.788;6.136;2023-04-03T15:55:25;5.47;;;1.57;;
4885;SDS011;2457;51.788;6.136;2023-04-03T15:57:53;4.23;;;1.30;;
4885;SDS011;2457;51.788;6.136;2023-04-03T16:00:20;5.60;;;1.63;;
4885;SDS011;2457;51.788;6.136;2023-04-03T16:02:49;4.87;;;1.40;;
4885;SDS011;2457;51.788;6.136;2023-04-03T16:05:18;4.13;;;1.27;;
4885;SDS011;2457;51.788;6.136;2023-04-03T16:07:46;5.50;;;1.20;;
4885;SDS011;2457;51.788;6.136;2023-04-03T16:10:14;3.73;;;1.23;;
4885;SDS011;2457;51.788;6.136;2023-04-03T16:12:42;3.27;;;1.27;;
4885;SDS011;2457;51.788;6.136;2023-04-03T16:15:09;3.90;;;1.50;;
4885;SDS011;2457;51.788;6.136;2023-04-03T16:17:37;5.50;;;1.20;;
4885;SDS011;2457;51.788;6.136;2023-04-03T16:20:05;3.93;;;1.50;;
4885;SDS011;2457;51.788;6.136;2023-04-03T16:22:33;3.33;;;1.30;;
4885;SDS011;2457;51.788;6.136;2023-04-03T16:25:01;5.30;;;1.50;;
4885;SDS011;2457;51.788;6.136;2023-04-03T16:27:28;5.13;;;1.23;;
4885;SDS011;2457;51.788;6.136;2023-04-03T16:29:57;3.30;;;1.10;;
4885;SDS011;2457;51.788;6.136;2023-04-03T16:32:25;6.23;;;1.20;;
4885;SDS011;2457;51.788;6.136;2023-04-03T16:34:53;4.60;;;1.60;;
4885;SDS011;2457;51.788;6.136;2023-04-03T16:37:21;8.27;;;1.70;;
4885;SDS011;2457;51.788;6.136;2023-04-03T16:39:48;4.93;;;1.27;;
4885;SDS011;2457;51.788;6.136;2023-04-03T16:42:15;5.70;;;1.70;;